createdAt,value
2023-01-19T00:02:47.295Z,100022.88
2023-01-19T00:05:51.372Z,100023.31
2023-01-19T00:08:53.995Z,100035.53
2023-01-19T00:11:56.583Z,100024.56
2023-01-19T00:14:59.140Z,100017.66
2023-01-19T00:18:01.661Z,100024.94
2023-01-19T00:21:05.713Z,100017.38
2023-01-19T00:24:08.429Z,100030.03
2023-01-19T00:27:10.962Z,100027.25
2023-01-19T00:30:14.068Z,100036.34
2023-01-19T00:33:16.659Z,100031.16
2023-01-19T00:36:20.777Z,100024.03
2023-01-19T00:39:23.310Z,100040.09
2023-01-19T00:42:41.197Z,100034.56
2023-01-19T00:45:43.791Z,100052.25
2023-01-19T00:48:46.407Z,100060.06
2023-01-19T00:51:50.300Z,100062.81
2023-01-19T00:54:52.830Z,100055.00
2023-01-19T00:57:55.388Z,100067.66
2023-01-19T01:01:03.466Z,100058.94
2023-01-19T01:04:06.629Z,100054.06
2023-01-19T01:07:10.684Z,100051.50
2023-01-19T01:10:14.213Z,100059.28
2023-01-19T01:13:20.180Z,100077.31
2023-01-19T01:16:24.972Z,100084.28
2023-01-19T01:19:27.608Z,100103.09
2023-01-19T01:22:31.698Z,100099.91
2023-01-19T01:25:37.596Z,100103.97
2023-01-19T01:28:40.143Z,100107.56
2023-01-19T01:31:42.774Z,100100.63
2023-01-19T01:34:45.372Z,100100.81
2023-01-19T01:37:49.287Z,100102.25
2023-01-19T01:40:51.828Z,100109.53
2023-01-19T01:43:58.106Z,100114.41
2023-01-19T01:47:00.768Z,100123.97
2023-01-19T01:50:09.986Z,100125.22
2023-01-19T01:53:14.528Z,100122.97
2023-01-19T01:56:23.101Z,100111.94
2023-01-19T01:59:29.707Z,100130.09
2023-01-19T02:02:49.722Z,100131.69
2023-01-19T02:05:52.259Z,100143.22
2023-01-19T02:09:16.174Z,100153.09
2023-01-19T02:12:36.358Z,100167.88
2023-01-19T02:15:38.913Z,100164.63
2023-01-19T02:18:41.647Z,100173.91
2023-01-19T02:21:53.097Z,100161.47
2023-01-19T02:24:56.967Z,100164.03
2023-01-19T02:27:59.495Z,100163.09
2023-01-19T02:31:02.128Z,100159.03
2023-01-19T02:34:04.996Z,100145.94
2023-01-19T02:37:08.660Z,100148.50
2023-01-19T02:40:13.937Z,100175.22
2023-01-19T02:43:16.536Z,100182.69
2023-01-19T02:46:19.101Z,100159.38
2023-01-19T02:49:21.648Z,100151.09
2023-01-19T02:52:24.176Z,100149.97
2023-01-19T02:55:28.832Z,100158.41
2023-01-19T02:58:33.529Z,100164.56
2023-01-19T03:01:41.950Z,100143.38
2023-01-19T03:04:54.803Z,100124.88
2023-01-19T03:08:00.106Z,100120.53
2023-01-19T03:11:04.897Z,100120.84
2023-01-19T03:14:09.869Z,100118.09
2023-01-19T03:17:12.393Z,100155.16
2023-01-19T03:20:15.020Z,100164.22
2023-01-19T03:23:17.542Z,100152.09
2023-01-19T03:26:24.667Z,100159.69
2023-01-19T03:29:29.313Z,100169.56
2023-01-19T03:32:35.456Z,100162.75
2023-01-19T03:35:39.910Z,100172.00
2023-01-19T03:38:42.657Z,100172.97
2023-01-19T03:41:46.581Z,100184.47
2023-01-19T03:44:50.606Z,100190.94
2023-01-19T03:47:53.240Z,100189.97
2023-01-19T03:50:56.038Z,100194.97
2023-01-19T03:53:58.617Z,100196.59
2023-01-19T03:57:02.536Z,100199.00
2023-01-19T04:00:06.457Z,100201.75
2023-01-19T04:03:13.856Z,100202.06
2023-01-19T04:06:16.452Z,100200.75
2023-01-19T04:09:20.136Z,100190.69
2023-01-19T04:12:24.091Z,100202.66
2023-01-19T04:15:26.737Z,100196.50
2023-01-19T04:18:29.301Z,100198.13
2023-01-19T04:21:31.822Z,100203.28
2023-01-19T04:24:34.361Z,100205.84
2023-01-19T04:27:38.332Z,100204.06
2023-01-19T04:30:40.916Z,100203.06
2023-01-19T04:33:43.496Z,100207.09
2023-01-19T04:36:46.871Z,100206.44
2023-01-19T04:39:49.450Z,100204.50
2023-01-19T04:42:54.305Z,100211.28
2023-01-19T04:45:56.876Z,100214.53
2023-01-19T04:48:59.873Z,100215.34
2023-01-19T04:52:02.486Z,100217.78
2023-01-19T04:55:05.505Z,100213.88
2023-01-19T04:58:09.375Z,100219.84
2023-01-19T05:01:12.006Z,100219.53
2023-01-19T05:04:14.577Z,100220.34
2023-01-19T05:07:17.188Z,100224.22
2023-01-19T05:10:20.204Z,100234.13
2023-01-19T05:13:24.097Z,100230.25
2023-01-19T05:16:26.689Z,100233.81
2023-01-19T05:19:29.300Z,100238.53
2023-01-19T05:22:31.989Z,100238.53
2023-01-19T05:25:34.522Z,100244.03
2023-01-19T05:28:38.772Z,100240.16
2023-01-19T05:31:41.326Z,100242.91
2023-01-19T05:34:43.896Z,100237.38
2023-01-19T05:37:46.477Z,100242.41
2023-01-19T05:40:49.502Z,100253.44
2023-01-19T05:43:53.479Z,100251.00
2023-01-19T05:46:56.160Z,100251.00
2023-01-19T05:49:58.738Z,100258.47
2023-01-19T05:53:01.680Z,100265.13
2023-01-19T05:56:06.049Z,100261.91
2023-01-19T05:59:10.359Z,100270.50
2023-01-19T06:02:13.020Z,100269.69
2023-01-19T06:05:15.652Z,100274.41
2023-01-19T06:08:18.576Z,100284.63
2023-01-19T06:11:21.901Z,100287.38
2023-01-19T06:14:26.101Z,100293.25
2023-01-19T06:17:28.683Z,100302.31
2023-01-19T06:20:32.323Z,100295.03
2023-01-19T06:23:35.223Z,100305.06
2023-01-19T06:26:37.780Z,100306.69
2023-01-19T06:29:41.659Z,100293.09
2023-01-19T06:32:44.235Z,100309.00
2023-01-19T06:35:47.088Z,100309.63
2023-01-19T06:38:49.603Z,100317.75
2023-01-19T06:41:52.136Z,100323.25
2023-01-19T06:44:56.063Z,100332.03
2023-01-19T06:47:58.609Z,100334.78
2023-01-19T06:51:01.140Z,100348.56
2023-01-19T06:54:03.891Z,100344.69
2023-01-19T06:57:06.418Z,100352.97
2023-01-19T07:00:11.763Z,100348.25
2023-01-19T07:03:19.497Z,100361.25
2023-01-19T07:06:22.225Z,100358.00
2023-01-19T07:09:25.474Z,100363.50
2023-01-19T07:12:28.104Z,100365.13
2023-01-19T07:15:31.982Z,100371.78
2023-01-19T07:18:34.611Z,100376.81
2023-01-19T07:21:37.231Z,100376.34
2023-01-19T07:24:39.805Z,100386.88
2023-01-19T07:27:42.348Z,100382.19
2023-01-19T07:30:47.038Z,100392.09
2023-01-19T07:33:49.967Z,100393.53
2023-01-19T07:36:52.500Z,100401.00
2023-01-19T07:39:55.087Z,100404.09
2023-01-19T07:42:57.695Z,100407.31
2023-01-19T07:46:02.859Z,100412.22
2023-01-19T07:49:05.512Z,100420.00
2023-01-19T07:52:08.063Z,100421.44
2023-01-19T07:55:10.953Z,100426.19
2023-01-19T07:58:13.579Z,100430.88
2023-01-19T08:01:17.993Z,100432.81
2023-01-19T08:04:20.748Z,100437.22
2023-01-19T08:07:23.410Z,100446.63
2023-01-19T08:10:26.829Z,100445.00
2023-01-19T08:13:29.413Z,100451.94
2023-01-19T08:16:33.351Z,100456.66
2023-01-19T08:19:36.011Z,100465.28
2023-01-19T08:22:38.758Z,100462.84
2023-01-19T08:25:44.317Z,100466.72
2023-01-19T08:28:46.923Z,100474.50
2023-01-19T08:31:50.918Z,100480.84
2023-01-19T08:34:53.600Z,100482.16
2023-01-19T08:37:56.736Z,100477.13
2023-01-19T08:40:59.270Z,100479.72
2023-01-19T08:44:01.825Z,100487.16
2023-01-19T08:47:05.884Z,100487.50
2023-01-19T08:50:10.671Z,100491.22
2023-01-19T08:53:13.235Z,100489.88
2023-01-19T08:56:15.833Z,100497.34
2023-01-19T08:59:18.556Z,100489.03
2023-01-19T09:02:22.547Z,100503.09
2023-01-19T09:05:25.167Z,100498.50
2023-01-19T09:08:28.078Z,100496.44
2023-01-19T09:11:30.715Z,100503.50
2023-01-19T09:14:33.524Z,100502.88
2023-01-19T09:17:37.478Z,100518.03
2023-01-19T09:20:42.379Z,100512.25
2023-01-19T09:23:45.194Z,100511.66
2023-01-19T09:26:47.932Z,100512.75
2023-01-19T09:29:52.596Z,100523.50
2023-01-19T09:32:58.630Z,100523.81
2023-01-19T09:36:02.838Z,100525.75
2023-01-19T09:39:05.415Z,100528.13
2023-01-19T09:42:12.964Z,100526.94
2023-01-19T09:45:16.109Z,100530.63
2023-01-19T09:48:29.068Z,100533.16
2023-01-19T09:51:34.561Z,100541.69
2023-01-19T09:54:41.022Z,100541.97
2023-01-19T09:57:45.127Z,100549.84
2023-01-19T10:00:50.604Z,100548.75
2023-01-19T10:04:03.761Z,100558.88
2023-01-19T10:07:17.110Z,100556.63
2023-01-19T10:10:21.611Z,100567.50
2023-01-19T10:13:29.390Z,100564.97
2023-01-19T10:16:39.678Z,100559.22
2023-01-19T10:19:46.737Z,100564.97
2023-01-19T10:22:50.277Z,100569.31
2023-01-19T10:25:52.919Z,100575.25
2023-01-19T10:28:57.887Z,100579.38
2023-01-19T10:32:05.214Z,100572.91
2023-01-19T10:35:15.151Z,100586.31
2023-01-19T10:38:21.940Z,100579.31
2023-01-19T10:41:27.261Z,100581.31
2023-01-19T10:44:30.801Z,100573.38
2023-01-19T10:47:35.490Z,100584.03
2023-01-19T10:50:40.618Z,100580.50
2023-01-19T10:53:43.996Z,100580.16
2023-01-19T10:56:46.636Z,100569.88
2023-01-19T10:59:50.778Z,100577.84
2023-01-19T11:02:53.541Z,100575.69
2023-01-19T11:05:59.734Z,100578.47
2023-01-19T11:09:15.606Z,100581.13
2023-01-19T11:12:19.742Z,100576.75
2023-01-19T11:15:23.025Z,100582.59
2023-01-19T11:18:28.148Z,100586.25
2023-01-19T11:21:32.897Z,100587.41
2023-01-19T11:24:36.746Z,100581.28
2023-01-19T11:27:39.520Z,100585.44
2023-01-19T11:30:55.057Z,100583.81
2023-01-19T11:33:58.673Z,100582.91
2023-01-19T11:37:03.621Z,100586.34
2023-01-19T11:40:07.056Z,100588.91
2023-01-19T11:43:11.381Z,100583.81
2023-01-19T11:46:14.048Z,100581.75
2023-01-19T11:49:19.999Z,100568.53
2023-01-19T11:52:27.036Z,100569.69
2023-01-19T11:55:34.008Z,100571.56
2023-01-19T11:58:38.977Z,100575.50
2023-01-19T12:01:43.448Z,100568.78
2023-01-19T12:04:46.685Z,100568.31
2023-01-19T12:07:50.679Z,100574.06
2023-01-19T12:10:53.904Z,100568.69
2023-01-19T12:13:56.452Z,100563.72
2023-01-19T12:17:00.200Z,100569.84
2023-01-19T12:20:07.033Z,100567.09
2023-01-19T12:23:19.057Z,100576.16
2023-01-19T12:26:29.893Z,100575.97
2023-01-19T12:29:33.720Z,100570.41
2023-01-19T12:32:36.766Z,100561.28
2023-01-19T12:35:55.452Z,100568.53
2023-01-19T12:39:01.878Z,100573.88
2023-01-19T12:42:12.494Z,100569.13
2023-01-19T12:45:15.568Z,100574.81
2023-01-19T12:48:24.983Z,100575.72
2023-01-19T12:51:27.612Z,100572.94
2023-01-19T12:54:32.547Z,100566.69
2023-01-19T12:57:36.827Z,100567.41
2023-01-19T13:00:39.897Z,100563.59
2023-01-19T13:03:47.517Z,100574.13
2023-01-19T13:07:10.430Z,100573.19
2023-01-19T13:10:50.624Z,100571.06
2023-01-19T13:14:34.913Z,100573.59
2023-01-19T13:17:40.184Z,100569.34
2023-01-19T13:20:45.327Z,100563.00
2023-01-19T13:23:53.339Z,100563.25
2023-01-19T13:26:57.734Z,100561.38
2023-01-19T13:30:01.547Z,100561.97
2023-01-19T13:33:10.323Z,100573.78
2023-01-19T13:36:22.637Z,100572.38
2023-01-19T13:39:27.631Z,100582.69
2023-01-19T13:42:31.374Z,100577.34
2023-01-19T13:45:34.596Z,100583.34
2023-01-19T13:48:38.494Z,100575.41
2023-01-19T13:51:41.085Z,100569.94
2023-01-19T13:54:50.290Z,100581.28
2023-01-19T13:57:53.064Z,100578.25
2023-01-19T14:00:55.760Z,100581.28
2023-01-19T14:03:59.946Z,100583.13
2023-01-19T14:07:04.296Z,100581.97
2023-01-19T14:10:08.275Z,100571.91
2023-01-19T14:13:15.342Z,100594.59
2023-01-19T14:16:18.340Z,100592.25
2023-01-19T14:19:22.350Z,100595.47
2023-01-19T14:22:39.003Z,100596.59
2023-01-19T14:25:45.086Z,100600.25
2023-01-19T14:28:47.736Z,100608.47
2023-01-19T14:31:51.489Z,100610.16
2023-01-19T14:35:13.392Z,100611.44
2023-01-19T14:38:16.022Z,100607.91
2023-01-19T14:41:24.027Z,100616.72
2023-01-19T14:44:29.301Z,100622.91
2023-01-19T14:47:37.049Z,100616.91
2023-01-19T14:50:51.013Z,100628.34
2023-01-19T14:54:04.799Z,100621.03
2023-01-19T14:57:11.715Z,100623.31
2023-01-19T15:00:17.656Z,100623.97
2023-01-19T15:03:20.256Z,100625.16
2023-01-19T15:06:24.440Z,100622.91
2023-01-19T15:09:27.103Z,100630.34
2023-01-19T15:12:29.635Z,100637.09
2023-01-19T15:15:33.135Z,100639.56
2023-01-19T15:18:35.707Z,100631.81
2023-01-19T15:21:41.940Z,100634.78
2023-01-19T15:24:44.557Z,100640.50
2023-01-19T15:27:47.300Z,100636.31
2023-01-19T15:30:49.832Z,100649.50
2023-01-19T15:33:52.372Z,100651.31
2023-01-19T15:36:56.306Z,100650.34
2023-01-19T15:39:58.904Z,100650.56
2023-01-19T15:43:01.485Z,100652.84
2023-01-19T15:46:06.266Z,100640.81
2023-01-19T15:49:08.910Z,100649.78
2023-01-19T15:52:12.867Z,100654.81
2023-01-19T15:55:15.928Z,100648.34
2023-01-19T15:58:20.495Z,100650.34
2023-01-19T16:01:24.093Z,100662.91
2023-01-19T16:04:26.708Z,100669.28
2023-01-19T16:07:30.619Z,100661.81
2023-01-19T16:10:33.258Z,100667.72
2023-01-19T16:13:35.856Z,100663.50
2023-01-19T16:16:38.629Z,100666.97
2023-01-19T16:19:41.253Z,100666.63
2023-01-19T16:22:45.142Z,100671.53
2023-01-19T16:25:56.186Z,100668.13
2023-01-19T16:28:59.859Z,100680.47
2023-01-19T16:32:02.465Z,100680.63
2023-01-19T16:35:05.459Z,100694.13
2023-01-19T16:38:10.153Z,100703.38
2023-01-19T16:41:12.707Z,100705.31
2023-01-19T16:44:16.283Z,100710.81
2023-01-19T16:47:18.836Z,100722.84
2023-01-19T16:50:21.355Z,100725.56
2023-01-19T16:53:25.285Z,100724.88
2023-01-19T16:56:27.832Z,100730.03
2023-01-19T16:59:30.444Z,100729.69
2023-01-19T17:02:33.306Z,100732.25
2023-01-19T17:05:35.851Z,100722.75
2023-01-19T17:08:39.809Z,100724.28
2023-01-19T17:11:42.507Z,100735.97
2023-01-19T17:14:47.170Z,100726.41
2023-01-19T17:17:49.699Z,100734.22
2023-01-19T17:20:52.283Z,100726.72
2023-01-19T17:23:56.571Z,100732.53
2023-01-19T17:26:59.183Z,100735.59
2023-01-19T17:30:01.794Z,100744.38
2023-01-19T17:33:04.336Z,100744.25
2023-01-19T17:36:08.033Z,100762.78
2023-01-19T17:39:14.723Z,100773.56
2023-01-19T17:42:17.467Z,100784.34
2023-01-19T17:45:20.051Z,100780.34
2023-01-19T17:48:22.619Z,100764.28
2023-01-19T17:51:25.587Z,100774.94
2023-01-19T17:54:29.725Z,100755.28
2023-01-19T17:57:32.276Z,100759.91
2023-01-19T18:00:34.832Z,100761.53
2023-01-19T18:03:37.391Z,100765.81
2023-01-19T18:06:40.095Z,100766.78
2023-01-19T18:09:44.068Z,100767.00
2023-01-19T18:12:46.594Z,100771.06
2023-01-19T18:15:49.141Z,100761.66
2023-01-19T18:18:53.413Z,100757.91
2023-01-19T18:21:56.618Z,100767.06
2023-01-19T18:25:01.619Z,100771.41
2023-01-19T18:28:05.379Z,100770.13
2023-01-19T18:31:08.175Z,100773.06
2023-01-19T18:34:10.793Z,100768.03
2023-01-19T18:37:13.335Z,100764.75
2023-01-19T18:40:17.633Z,100765.38
2023-01-19T18:43:20.203Z,100761.09
2023-01-19T18:46:22.792Z,100779.75
2023-01-19T18:49:25.387Z,100775.78
2023-01-19T18:52:27.927Z,100781.88
2023-01-19T18:55:31.794Z,100799.00
2023-01-19T18:58:34.462Z,100823.03
2023-01-19T19:01:37.127Z,100826.19
2023-01-19T19:04:40.031Z,100835.50
2023-01-19T19:07:42.801Z,100839.38
2023-01-19T19:10:46.678Z,100833.84
2023-01-19T19:13:52.588Z,100823.56
2023-01-19T19:16:55.239Z,100828.13
2023-01-19T19:19:57.805Z,100828.34
2023-01-19T19:23:00.380Z,100835.50
2023-01-19T19:26:04.780Z,100833.03
2023-01-19T19:29:07.371Z,100830.28
2023-01-19T19:32:09.947Z,100837.63
2023-01-19T19:35:12.581Z,100853.84
2023-01-19T19:38:15.118Z,100846.47
2023-01-19T19:41:20.164Z,100833.16
2023-01-19T19:44:22.744Z,100854.66
2023-01-19T19:47:25.450Z,100841.81
2023-01-19T19:50:28.021Z,100845.06
2023-01-19T19:53:30.559Z,100842.25
2023-01-19T19:56:34.776Z,100834.06
2023-01-19T19:59:37.486Z,100828.19
2023-01-19T20:02:40.031Z,100831.59
2023-01-19T20:05:42.614Z,100838.84
2023-01-19T20:08:45.181Z,100839.03
2023-01-19T20:11:49.094Z,100844.69
2023-01-19T20:14:51.647Z,100839.91
2023-01-19T20:17:56.041Z,100842.84
2023-01-19T20:20:58.730Z,100848.47
2023-01-19T20:24:01.969Z,100856.19
2023-01-19T20:27:05.944Z,100864.41
2023-01-19T20:30:09.683Z,100871.00
2023-01-19T20:33:12.220Z,100863.31
2023-01-19T20:36:14.873Z,100877.09
2023-01-19T20:39:17.562Z,100872.19
2023-01-19T20:42:21.471Z,100876.63
2023-01-19T20:45:25.938Z,100881.09
2023-01-19T20:48:28.511Z,100876.16
2023-01-19T20:51:31.064Z,100888.53
2023-01-19T20:54:33.648Z,100889.34
2023-01-19T20:57:37.568Z,100877.44
2023-01-19T21:00:40.912Z,100889.94
2023-01-19T21:03:43.516Z,100901.47
2023-01-19T21:06:46.119Z,100904.28
2023-01-19T21:09:48.733Z,100901.81
2023-01-19T21:12:52.661Z,100908.13
2023-01-19T21:15:55.222Z,100906.97
2023-01-19T21:18:57.740Z,100897.16
2023-01-19T21:22:00.310Z,100914.91
2023-01-19T21:25:02.905Z,100914.34
2023-01-19T21:28:07.048Z,100922.50
2023-01-19T21:31:10.575Z,100925.41
2023-01-19T21:34:14.020Z,100930.00
2023-01-19T21:37:16.587Z,100931.78
2023-01-19T21:40:19.932Z,100928.94
2023-01-19T21:43:23.934Z,100932.66
2023-01-19T21:46:28.863Z,100943.00
2023-01-19T21:49:31.876Z,100943.97
2023-01-19T21:52:34.448Z,100940.19
2023-01-19T21:55:37.064Z,100934.31
2023-01-19T21:58:40.988Z,100932.25
2023-01-19T22:01:43.836Z,100949.91
2023-01-19T22:04:46.479Z,100943.31
2023-01-19T22:07:49.408Z,100952.66
2023-01-19T22:10:51.996Z,100937.81
2023-01-19T22:13:55.871Z,100949.84
2023-01-19T22:16:58.455Z,100958.06
2023-01-19T22:20:01.145Z,100959.19
2023-01-19T22:23:03.679Z,100958.06
2023-01-19T22:26:06.264Z,100964.66
2023-01-19T22:29:11.786Z,100969.66
2023-01-19T22:32:14.351Z,100970.75
2023-01-19T22:35:17.188Z,100963.06
2023-01-19T22:38:19.723Z,100979.47
2023-01-19T22:41:22.929Z,100976.13
2023-01-19T22:44:27.128Z,100982.69
2023-01-19T22:47:29.750Z,100979.88
2023-01-19T22:50:32.274Z,100988.03
2023-01-19T22:53:34.846Z,100983.91
2023-01-19T22:56:37.965Z,100983.59
2023-01-19T22:59:43.537Z,100986.66
2023-01-19T23:02:46.145Z,100984.75
2023-01-19T23:05:48.771Z,100989.22
2023-01-19T23:08:51.413Z,100984.31
2023-01-19T23:11:54.053Z,100988.75
2023-01-19T23:14:57.981Z,100992.38
2023-01-19T23:18:00.577Z,100996.56
2023-01-19T23:21:03.821Z,100997.72
2023-01-19T23:24:06.776Z,100987.91
2023-01-19T23:27:09.551Z,100992.91
2023-01-19T23:30:14.379Z,100992.09
2023-01-19T23:33:16.940Z,100995.16
2023-01-19T23:36:19.777Z,101000.38
2023-01-19T23:39:22.727Z,101003.41
2023-01-19T23:42:25.261Z,101001.81
2023-01-19T23:45:29.136Z,101004.00
2023-01-19T23:48:31.667Z,101013.91
2023-01-19T23:51:34.459Z,101013.44
2023-01-19T23:54:37.195Z,101020.03
2023-01-19T23:57:39.828Z,101022.78
